Time;durP1;ratioP1;P1;durP2;ratioP2;P2;SDS_P1;SDS_P2;PMS_P1;PMS_P2;Temp;Humidity;BMP_temperature;BMP_pressure;BME280_temperature;BME280_humidity;BME280_pressure;Samples;Min_cycle;Max_cycle;Signal;HPM_P1;HPM_P2
2021/03/21 00:01:05;;;;;;;8.57;7.03;;;;;;;-0.04;74.32;99898.75;1705206;84;21145;-63
2021/03/21 00:03:34;;;;;;;10.50;6.97;;;;;;;-0.05;74.39;99891.31;1703863;84;21176;-65
2021/03/21 00:06:02;;;;;;;10.43;8.20;;;;;;;-0.02;74.33;99887.52;1704964;84;23401;-63
2021/03/21 00:08:32;;;;;;;10.20;7.63;;;;;;;-0.02;74.28;99888.34;1704166;84;21161;-63
2021/03/21 00:11:04;;;;;;;10.83;7.80;;;;;;;-0.01;74.24;99878.59;1704261;84;21148;-62
2021/03/21 00:13:31;;;;;;;11.33;7.23;;;;;;;-0.02;74.21;99878.25;1704687;84;21054;-63
2021/03/21 00:15:58;;;;;;;11.83;7.37;;;;;;;-0.02;74.22;99876.94;1703591;84;21180;-62
2021/03/21 00:18:30;;;;;;;9.80;6.30;;;;;;;-0.03;74.21;99881.89;1703521;84;21378;-62
2021/03/21 00:20:57;;;;;;;10.70;7.43;;;;;;;-0.06;74.28;99877.80;1703392;84;21678;-62
2021/03/21 00:23:25;;;;;;;8.70;6.97;;;;;;;-0.07;74.34;99872.67;1703440;84;21614;-62
2021/03/21 00:25:52;;;;;;;9.43;6.90;;;;;;;-0.11;74.41;99880.14;1703471;84;21200;-63
2021/03/21 00:28:24;;;;;;;13.47;10.00;;;;;;;-0.13;74.48;99874.20;1703157;84;21209;-64
2021/03/21 00:30:53;;;;;;;;;;;;;;;-0.16;74.58;99875.06;1704533;84;21193;-62
2021/03/21 00:33:25;;;;;;;13.20;9.17;;;;;;;-0.17;74.61;99868.95;1701969;84;20275;-63
2021/03/21 00:35:53;;;;;;;10.77;8.10;;;;;;;-0.18;74.71;99873.91;1703465;84;21049;-63
2021/03/21 00:38:27;;;;;;;11.33;8.07;;;;;;;-0.17;74.69;99871.59;1704058;84;21212;-64
2021/03/21 00:40:55;;;;;;;8.17;6.33;;;;;;;-0.18;74.74;99870.44;1678447;85;21175;-63
2021/03/21 00:43:23;;;;;;;8.20;7.03;;;;;;;-0.18;74.77;99865.15;1676800;85;21172;-65
2021/03/21 00:45:50;;;;;;;15.10;8.80;;;;;;;-0.20;74.81;99867.16;1695494;84;21614;-66
2021/03/21 00:48:23;;;;;;;10.87;7.77;;;;;;;-0.22;74.89;99867.83;1704278;84;22196;-66
2021/03/21 00:50:51;;;;;;;8.55;7.62;;;;;;;-0.24;74.95;99862.70;1705273;84;21144;-65
2021/03/21 00:53:19;;;;;;;11.53;8.77;;;;;;;-0.26;74.97;99864.72;1705020;84;21148;-66
2021/03/21 00:55:48;;;;;;;11.67;7.37;;;;;;;-0.26;75.04;99862.08;1704095;84;21389;-66
2021/03/21 00:58:15;;;;;;;11.23;9.63;;;;;;;-0.28;75.06;99861.91;1703526;84;21196;-65
2021/03/21 01:00:45;;;;;;;9.67;7.47;;;;;;;-0.32;75.16;99857.98;1705068;84;21089;-66
2021/03/21 01:03:13;;;;;;;15.13;8.33;;;;;;;-0.33;75.24;99851.88;1704720;84;21216;-64
2021/03/21 01:05:54;;;;;;;12.60;9.27;;;;;;;-0.34;75.30;99854.72;1704553;84;21159;-64
2021/03/21 01:08:32;;;;;;;10.93;7.80;;;;;;;-0.28;75.32;99849.53;1809718;77;26559;-66
2021/03/21 01:11:13;;;;;;;12.37;8.50;;;;;;;-0.33;75.36;99851.88;1781294;80;20960;-65
2021/03/21 01:13:41;;;;;;;12.00;7.90;;;;;;;-0.36;75.39;99843.48;1780531;80;21191;-64
2021/03/21 01:16:13;;;;;;;12.43;9.23;;;;;;;-0.39;75.46;99843.84;1771327;80;21023;-64
2021/03/21 01:18:41;;;;;;;18.37;10.58;;;;;;;-0.38;75.54;99840.22;1766561;80;20991;-65
2021/03/21 01:21:11;;;;;;;15.47;9.27;;;;;;;-0.40;75.59;99843.02;1752597;80;21007;-64
2021/03/21 01:23:40;;;;;;;16.23;8.77;;;;;;;-0.39;75.56;99839.39;1750577;82;21054;-64
2021/03/21 01:26:13;;;;;;;13.60;8.20;;;;;;;-0.40;75.57;99838.23;1750362;81;21291;-67
2021/03/21 01:28:47;;;;;;;17.77;9.53;;;;;;;-0.39;75.64;99835.92;1872579;76;27139;-62
2021/03/21 01:31:20;;;;;;;12.77;8.83;;;;;;;-0.44;75.73;99844.38;1781379;80;21133;-64
2021/03/21 01:33:47;;;;;;;14.68;8.05;;;;;;;-0.46;75.73;99836.61;1793292;79;21382;-66
2021/03/21 01:36:31;;;;;;;11.30;8.13;;;;;;;-0.47;75.79;99839.42;1789706;80;21051;-65
2021/03/21 01:38:59;;;;;;;;;;;;;;;-0.51;75.92;99840.77;1807404;78;21606;-66
2021/03/21 01:41:31;;;;;;;12.63;9.47;;;;;;;-0.52;76.03;99841.27;1789830;80;20226;-66
2021/03/21 01:43:58;;;;;;;12.73;9.30;;;;;;;-0.56;76.11;99829.91;1790106;80;20983;-66
2021/03/21 01:46:40;;;;;;;16.50;8.77;;;;;;;-0.59;76.34;99839.02;1789894;80;21384;-65
2021/03/21 01:49:31;;;;;;;14.00;8.87;;;;;;;-0.60;76.42;99829.45;1802829;78;20991;-65
2021/03/21 01:52:00;;;;;;;13.53;9.80;;;;;;;-0.62;76.59;99827.47;1774594;80;21560;-63
2021/03/21 01:54:27;;;;;;;12.40;8.20;;;;;;;-0.64;76.67;99836.08;1790097;79;21173;-64
2021/03/21 01:56:55;;;;;;;12.47;8.83;;;;;;;-0.64;76.80;99832.61;1806249;79;21608;-64
2021/03/21 01:59:26;;;;;;;8.73;6.67;;;;;;;-0.62;76.88;99831.92;1798687;79;22039;-67
2021/03/21 02:01:56;;;;;;;12.00;8.87;;;;;;;-0.62;77.01;99820.03;1785560;80;21157;-63
2021/03/21 02:04:25;;;;;;;9.63;8.23;;;;;;;-0.62;77.00;99831.92;1788688;80;21044;-63
2021/03/21 02:07:26;;;;;;;12.47;7.87;;;;;;;-0.62;77.04;99833.23;1782232;80;21019;-64
2021/03/21 02:10:27;;;;;;;17.40;10.00;;;;;;;-0.63;77.11;99817.09;1761724;81;21146;-63
2021/03/21 02:13:33;;;;;;;12.97;7.67;;;;;;;-0.59;77.13;99813.93;1834617;77;26591;-62
2021/03/21 02:16:10;;;;;;;10.60;6.37;;;;;;;-0.61;77.07;99817.72;1785659;80;21595;-63
2021/03/21 02:19:24;;;;;;;16.17;9.77;;;;;;;-0.62;77.10;99810.30;1799765;78;21364;-63
2021/03/21 02:21:59;;;;;;;10.57;7.83;;;;;;;-0.64;77.08;99808.84;1786207;80;21057;-62
2021/03/21 02:24:52;;;;;;;11.27;7.50;;;;;;;-0.70;77.14;99807.72;1785855;80;21050;-62
2021/03/21 02:27:47;;;;;;;11.33;8.97;;;;;;;-0.74;77.28;99813.03;1785363;80;21022;-62
2021/03/21 02:30:29;;;;;;;10.77;8.63;;;;;;;-0.76;77.37;99800.98;1758804;81;21003;-61
2021/03/21 02:33:05;;;;;;;9.57;7.47;;;;;;;-0.80;77.48;99794.41;1758800;81;21385;-60
2021/03/21 02:35:56;;;;;;;11.70;8.23;;;;;;;-0.82;77.62;99803.84;1758620;81;21010;-65
2021/03/21 02:38:35;;;;;;;12.53;8.33;;;;;;;-0.80;77.60;99798.37;1768780;80;22314;-63
2021/03/21 02:41:11;;;;;;;12.57;7.67;;;;;;;-0.80;77.54;99806.29;1781829;80;21026;-62
2021/03/21 02:43:42;;;;;;;13.97;10.47;;;;;;;-0.80;77.52;99804.97;1755717;80;21142;-63
2021/03/21 02:46:14;;;;;;;13.87;9.43;;;;;;;-0.85;77.50;99806.81;1784254;80;21687;-62
2021/03/21 02:48:52;;;;;;;16.67;10.10;;;;;;;-0.87;77.57;99796.94;1783412;80;21030;-61
2021/03/21 02:51:23;;;;;;;12.87;7.97;;;;;;;-0.87;77.65;99804.86;1783476;80;21273;-63
2021/03/21 02:54:01;;;;;;;13.73;9.30;;;;;;;-0.87;77.63;99792.16;1781557;80;21115;-61
2021/03/21 02:56:30;;;;;;;12.90;8.90;;;;;;;-0.92;77.64;99798.78;1779618;80;21191;-63
2021/03/21 02:59:18;;;;;;;14.17;9.60;;;;;;;-0.95;77.74;99795.16;1781007;80;21366;-61
2021/03/21 03:01:52;;;;;;;12.90;9.90;;;;;;;-0.97;77.78;99797.66;1783810;80;21635;-62
2021/03/21 03:04:42;;;;;;;11.57;8.90;;;;;;;-0.96;77.86;99794.03;1781086;80;21583;-62
2021/03/21 03:07:19;;;;;;;16.47;9.43;;;;;;;-0.97;77.88;99794.52;1753300;80;21051;-61
2021/03/21 03:09:50;;;;;;;14.03;9.13;;;;;;;-0.97;77.84;99787.92;1758880;81;21562;-61
2021/03/21 03:12:33;;;;;;;14.50;9.57;;;;;;;-0.97;77.83;99789.24;1754598;81;21218;-62
2021/03/21 03:15:07;;;;;;;14.03;9.10;;;;;;;-0.95;77.74;99783.77;1756558;80;21632;-62
2021/03/21 03:17:42;;;;;;;;;;;;;;;-0.94;77.68;99779.64;1772908;80;21086;-62
2021/03/21 03:20:21;;;;;;;10.33;8.10;;;;;;;-0.95;77.67;99780.63;1766854;81;20270;-62
2021/03/21 03:22:59;;;;;;;15.17;8.67;;;;;;;-0.96;77.61;99782.14;1767035;81;21167;-62
2021/03/21 03:25:39;;;;;;;15.43;11.00;;;;;;;-0.98;77.66;99784.12;1768963;81;21256;-61
2021/03/21 03:28:32;;;;;;;14.20;9.63;;;;;;;-1.00;77.70;99780.33;1775397;80;21655;-62
2021/03/21 03:31:28;;;;;;;11.95;8.15;;;;;;;-1.00;77.69;99782.14;1781468;80;21165;-62
2021/03/21 03:33:57;;;;;;;12.87;8.47;;;;;;;-1.00;77.72;99775.05;1781293;80;21197;-62
2021/03/21 03:36:24;;;;;;;11.60;8.47;;;;;;;-1.00;77.73;99783.47;1760103;80;21149;-61
2021/03/21 03:38:52;;;;;;;11.43;8.40;;;;;;;-1.00;77.72;99779.50;1760583;80;21402;-62
2021/03/21 03:42:00;;;;;;;15.83;9.37;;;;;;;-1.01;77.65;99776.04;1766190;81;21175;-62
2021/03/21 03:45:03;;;;;;;15.93;10.03;;;;;;;-1.00;77.55;99777.69;1763055;80;21032;-62
2021/03/21 03:48:02;;;;;;;14.43;9.68;;;;;;;-0.99;77.54;99770.59;1759268;80;21195;-63
2021/03/21 03:50:41;;;;;;;9.87;7.63;;;;;;;-1.00;77.50;99764.98;1766267;80;21167;-61
2021/03/21 03:53:31;;;;;;;10.27;7.23;;;;;;;-1.00;77.53;99767.13;1755614;81;21605;-62
2021/03/21 03:56:12;;;;;;;10.27;8.73;;;;;;;-0.98;77.38;99770.44;1766270;81;21632;-62
2021/03/21 03:59:15;;;;;;;11.77;10.30;;;;;;;-0.98;77.30;99763.84;1775693;80;21038;-62
2021/03/21 04:02:04;;;;;;;13.88;8.78;;;;;;;-0.97;77.17;99758.06;1719753;83;21175;-63
2021/03/21 04:04:43;;;;;;;11.13;8.87;;;;;;;-0.95;77.06;99767.44;1719879;83;21117;-63
2021/03/21 04:07:26;;;;;;;13.00;9.10;;;;;;;-0.93;76.85;99766.78;1719646;83;22200;-61
2021/03/21 04:10:01;;;;;;;10.03;8.07;;;;;;;-0.92;76.58;99764.97;1706471;83;21169;-60
2021/03/21 04:12:35;;;;;;;13.83;8.17;;;;;;;-0.93;76.26;99771.23;1708883;84;21074;-62
2021/03/21 04:15:11;;;;;;;14.00;9.67;;;;;;;-0.95;76.10;99771.39;1708947;84;21122;-62
2021/03/21 04:17:48;;;;;;;12.80;8.87;;;;;;;-0.95;76.08;99763.97;1713792;83;21238;-61
2021/03/21 04:20:24;;;;;;;13.47;9.03;;;;;;;-0.94;75.93;99765.63;1683703;84;21186;-61
2021/03/21 04:23:01;;;;;;;13.10;9.10;;;;;;;-0.94;75.65;99762.98;1717843;83;21192;-61
2021/03/21 04:25:34;;;;;;;16.13;9.30;;;;;;;-0.94;75.60;99766.45;1717848;83;21017;-62
2021/03/21 04:28:08;;;;;;;16.15;10.30;;;;;;;-0.94;75.42;99771.72;1712296;83;21121;-61
2021/03/21 04:30:44;;;;;;;16.10;10.97;;;;;;;-0.91;75.41;99772.69;1719775;83;21394;-60
2021/03/21 04:33:15;;;;;;;11.80;10.23;;;;;;;-0.89;75.28;99761.96;1719773;83;21206;-60
2021/03/21 04:35:51;;;;;;;10.77;8.23;;;;;;;-0.84;75.01;99766.22;1717313;83;21139;-61
2021/03/21 04:38:31;;;;;;;11.20;8.53;;;;;;;-0.85;74.85;99757.97;1713145;83;21185;-62
2021/03/21 04:40:58;;;;;;;11.30;7.90;;;;;;;-0.86;74.70;99751.56;1697914;83;21192;-62
2021/03/21 04:43:40;;;;;;;13.23;10.20;;;;;;;-0.84;74.56;99745.59;1719726;83;21126;-61
2021/03/21 04:46:13;;;;;;;11.20;8.70;;;;;;;-0.79;74.48;99744.08;1715831;83;21384;-61
2021/03/21 04:48:40;;;;;;;10.85;7.37;;;;;;;-0.76;74.27;99742.39;1717969;83;21169;-61
2021/03/21 04:51:16;;;;;;;9.60;6.97;;;;;;;-0.73;74.08;99740.74;1719691;83;21137;-63
2021/03/21 04:53:54;;;;;;;9.10;8.20;;;;;;;-0.71;73.99;99740.05;1718857;83;21167;-62
2021/03/21 04:56:34;;;;;;;10.13;7.90;;;;;;;-0.66;73.87;99736.38;1714076;83;21212;-62
2021/03/21 04:59:25;;;;;;;10.33;7.70;;;;;;;-0.63;73.64;99729.45;1686595;84;21207;-64
2021/03/21 05:02:12;;;;;;;9.90;7.73;;;;;;;-0.59;73.55;99734.70;1669938;85;21116;-63
2021/03/21 05:04:48;;;;;;;10.43;8.77;;;;;;;-0.53;73.40;99735.81;1679623;85;21153;-61
2021/03/21 05:07:32;;;;;;;10.70;7.80;;;;;;;-0.49;72.95;99730.00;1674706;85;21181;-61
2021/03/21 05:10:13;;;;;;;10.90;7.47;;;;;;;-0.45;72.87;99739.70;1680447;85;21215;-62
2021/03/21 05:13:02;;;;;;;20.23;9.97;;;;;;;-0.43;72.61;99740.85;1680397;85;21173;-62
2021/03/21 05:15:54;;;;;;;13.40;8.60;;;;;;;-0.38;72.67;99737.17;1660936;85;21626;-62
2021/03/21 05:18:48;;;;;;;12.37;8.87;;;;;;;-0.34;71.91;99743.74;1662158;85;21191;-62
2021/03/21 05:21:32;;;;;;;9.67;5.80;;;;;;;-0.34;71.70;99743.74;1669899;86;21700;-62
2021/03/21 05:24:29;;;;;;;9.80;7.03;;;;;;;-0.34;70.98;99743.25;1658151;86;21196;-60
2021/03/21 05:27:18;;;;;;;13.37;8.60;;;;;;;-0.33;70.74;99751.47;1665755;86;21470;-62
2021/03/21 05:30:15;;;;;;;10.07;7.67;;;;;;;-0.33;69.90;99735.61;1622454;86;21268;-67
2021/03/21 05:32:43;;;;;;;10.30;7.43;;;;;;;-0.29;69.88;99740.06;1570403;90;21045;-62
2021/03/21 05:35:22;;;;;;;7.50;5.27;;;;;;;-0.23;69.68;99743.29;1570386;91;21605;-61
2021/03/21 05:37:58;;;;;;;12.63;8.60;;;;;;;-0.20;69.17;99738.49;1583937;90;21139;-63
2021/03/21 05:40:51;;;;;;;10.97;6.93;;;;;;;-0.16;68.95;99736.30;1567136;91;21254;-64
2021/03/21 05:43:52;;;;;;;8.83;7.45;;;;;;;-0.12;68.47;99734.94;1570491;90;21105;-62
2021/03/21 05:46:51;;;;;;;8.30;6.83;;;;;;;-0.07;67.94;99736.55;1572187;90;20990;-62
2021/03/21 05:49:52;;;;;;;11.80;8.57;;;;;;;-0.05;67.45;99740.63;1573693;90;21228;-61
2021/03/21 05:53:18;;;;;;;12.80;7.37;;;;;;;-0.01;67.29;99741.94;1570406;91;21180;-63
2021/03/21 05:56:13;;;;;;;8.37;6.60;;;;;;;0.05;66.12;99731.65;1570296;91;21385;-63
2021/03/21 05:59:16;;;;;;;12.87;7.57;;;;;;;0.13;65.81;99732.38;1570390;90;21144;-63
2021/03/21 06:02:09;;;;;;;10.87;7.67;;;;;;;0.17;65.32;99752.66;1586709;90;21579;-63
2021/03/21 06:05:03;;;;;;;9.60;7.87;;;;;;;0.18;64.22;99768.36;1591037;90;21189;-63
2021/03/21 06:08:24;;;;;;;13.73;9.37;;;;;;;0.20;64.44;99728.48;1606915;88;21182;-63
2021/03/21 06:11:18;;;;;;;12.80;10.07;;;;;;;0.24;64.40;99718.68;1590522;90;21275;-60
2021/03/21 06:14:25;;;;;;;13.70;8.47;;;;;;;0.31;64.45;99725.39;1609157;88;21225;-62
2021/03/21 06:17:49;;;;;;;10.40;8.63;;;;;;;0.36;64.66;99729.63;1616226;88;21195;-62
2021/03/21 06:20:46;;;;;;;10.80;8.00;;;;;;;0.37;64.13;99720.70;1566325;90;21228;-61
2021/03/21 06:23:28;;;;;;;15.17;8.93;;;;;;;0.42;64.18;99723.12;1598268;88;21563;-62
2021/03/21 06:26:30;;;;;;;12.00;8.87;;;;;;;0.44;64.37;99721.09;1579278;88;21428;-63
2021/03/21 06:29:28;;;;;;;12.20;8.77;;;;;;;0.47;64.53;99718.59;1596633;86;21102;-62
2021/03/21 06:32:22;;;;;;;15.17;10.50;;;;;;;0.44;64.96;99741.44;1589633;88;21181;-63
2021/03/21 06:34:55;;;;;;;16.67;12.13;;;;;;;0.34;64.66;99724.52;1614941;88;21198;-63
2021/03/21 06:38:20;;;;;;;15.63;10.53;;;;;;;0.36;65.12;99713.77;1838503;75;27401;-63
2021/03/21 06:40:53;;;;;;;17.37;11.77;;;;;;;0.31;65.43;99712.17;1807545;79;20991;-62
2021/03/21 06:43:42;;;;;;;15.23;11.33;;;;;;;0.38;65.47;99710.44;1872730;75;22689;-63
2021/03/21 06:46:42;;;;;;;15.90;11.88;;;;;;;0.40;65.39;99700.48;1765820;77;21003;-63
2021/03/21 06:49:46;;;;;;;19.87;13.97;;;;;;;0.37;64.45;99717.55;1826444;78;21137;-64
2021/03/21 06:52:28;;;;;;;16.60;11.50;;;;;;;0.36;64.64;99692.59;1828164;78;20994;-64
2021/03/21 06:55:35;;;;;;;18.20;11.90;;;;;;;0.37;64.78;99691.60;1828588;78;20970;-62
2021/03/21 06:58:32;;;;;;;18.80;12.43;;;;;;;0.33;64.59;99698.27;1847049;77;20975;-61
2021/03/21 07:01:42;;;;;;;16.67;13.07;;;;;;;0.29;64.51;99681.92;1856596;77;21033;-63
2021/03/21 07:04:37;;;;;;;18.83;13.23;;;;;;;0.31;64.76;99689.19;1826190;78;21096;-63
2021/03/21 07:07:57;;;;;;;17.57;13.87;;;;;;;0.32;64.83;99682.08;1829934;77;21035;-64
2021/03/21 07:11:03;;;;;;;22.83;12.20;;;;;;;0.34;64.67;99676.08;1849585;77;21606;-62
2021/03/21 07:13:56;;;;;;;17.83;12.93;;;;;;;0.36;64.68;99675.41;1849649;77;21159;-63
2021/03/21 07:16:37;;;;;;;20.47;14.17;;;;;;;0.37;64.09;99680.52;1821608;78;21546;-62
2021/03/21 07:19:44;;;;;;;20.80;13.03;;;;;;;0.36;64.03;99656.89;1797213;79;21053;-63
2021/03/21 07:22:32;;;;;;;23.97;14.53;;;;;;;0.36;64.43;99660.86;1795998;79;21180;-63
2021/03/21 07:25:26;;;;;;;20.43;13.73;;;;;;;0.42;64.13;99650.37;1817160;78;21589;-63
2021/03/21 07:28:11;;;;;;;19.45;13.72;;;;;;;0.53;63.06;99671.53;1818300;78;21563;-63
2021/03/21 07:31:02;;;;;;;22.53;15.20;;;;;;;0.55;61.80;99656.30;1818484;78;21570;-62
2021/03/21 07:33:41;;;;;;;21.67;13.40;;;;;;;0.55;61.65;99681.44;1819566;78;21581;-62
2021/03/21 07:36:28;;;;;;;21.13;12.33;;;;;;;0.53;61.32;99660.16;1817575;78;21121;-63
2021/03/21 07:39:52;;;;;;;21.23;13.67;;;;;;;0.57;61.11;99629.67;1817025;78;20993;-63
2021/03/21 07:42:52;;;;;;;18.70;13.03;;;;;;;0.65;61.19;99645.42;1819596;78;21113;-63
2021/03/21 07:45:26;;;;;;;23.00;15.43;;;;;;;0.75;60.55;99632.70;1826717;78;21172;-63
2021/03/21 07:48:38;;;;;;;19.13;13.57;;;;;;;0.78;60.47;99615.11;1821465;78;22135;-63
2021/03/21 07:51:13;;;;;;;19.73;13.53;;;;;;;0.82;60.53;99607.93;1821101;78;21139;-64
2021/03/21 07:54:02;;;;;;;;;;;;;;;0.88;60.41;99620.92;1824041;78;22525;-63
2021/03/21 07:56:52;;;;;;;16.40;11.10;;;;;;;0.90;59.12;99611.47;1821340;78;20227;-66
2021/03/21 07:59:23;;;;;;;16.57;12.93;;;;;;;0.86;58.52;99611.05;1821117;78;21168;-63
2021/03/21 08:01:53;;;;;;;18.03;13.20;;;;;;;0.88;58.95;99583.86;1820804;78;21397;-64
2021/03/21 08:04:32;;;;;;;22.83;15.27;;;;;;;0.92;59.04;99591.73;1820735;78;21175;-63
2021/03/21 08:07:19;;;;;;;20.17;13.53;;;;;;;0.90;59.23;99585.00;1822124;78;21602;-63
2021/03/21 08:09:47;;;;;;;17.23;12.73;;;;;;;0.90;59.29;99589.80;1822506;78;21137;-64
2021/03/21 08:12:24;;;;;;;14.73;10.73;;;;;;;0.96;58.30;99613.37;1764922;79;21167;-63
2021/03/21 08:15:23;;;;;;;17.50;12.47;;;;;;;0.99;58.23;99576.73;1799254;79;21349;-62
2021/03/21 08:18:04;;;;;;;20.10;12.93;;;;;;;1.05;58.67;99561.41;1798796;79;21621;-63
2021/03/21 08:20:37;;;;;;;19.17;14.60;;;;;;;1.13;58.57;99556.47;1798230;79;21661;-67
2021/03/21 08:23:31;;;;;;;20.57;13.50;;;;;;;1.23;58.83;99535.77;1826553;78;21131;-65
2021/03/21 08:26:02;;;;;;;26.53;15.33;;;;;;;1.37;59.02;99535.34;1831603;78;21144;-68
2021/03/21 08:31:11;;;;;;;23.83;14.73;;;;;;;1.63;58.25;99540.81;1847036;75;22277;-64
2021/03/21 08:33:41;;;;;;;18.40;13.63;;;;;;;1.58;57.95;99537.92;1816011;79;20960;-64
2021/03/21 08:36:25;;;;;;;25.77;15.60;;;;;;;1.52;57.90;99536.05;1816885;79;21365;-62
2021/03/21 08:39:07;;;;;;;20.95;15.43;;;;;;;1.51;57.88;99547.16;1817388;79;20987;-65
2021/03/21 08:41:50;;;;;;;19.33;14.37;;;;;;;1.44;56.89;99525.08;1812867;79;21606;-66
2021/03/21 08:44:42;;;;;;;20.27;12.60;;;;;;;1.45;57.17;99521.42;1782680;80;21050;-63
2021/03/21 08:47:21;;;;;;;16.60;13.23;;;;;;;1.47;56.88;99518.59;1784966;80;21042;-65
2021/03/21 08:49:52;;;;;;;20.77;14.20;;;;;;;1.44;56.36;99503.09;1785033;80;21067;-66
2021/03/21 08:52:31;;;;;;;25.33;15.70;;;;;;;1.37;56.36;99514.97;1797079;79;21034;-64
2021/03/21 08:54:59;;;;;;;16.33;12.73;;;;;;;1.33;56.44;99507.09;1817847;79;21113;-62
2021/03/21 08:57:35;;;;;;;20.87;14.07;;;;;;;1.33;56.41;99519.02;1818017;79;21125;-62
2021/03/21 09:00:32;;;;;;;20.93;14.00;;;;;;;1.31;55.46;99523.18;1817274;79;21131;-62
2021/03/21 09:03:00;;;;;;;21.53;13.47;;;;;;;1.29;55.79;99499.23;1816309;79;22220;-63
2021/03/21 09:05:28;;;;;;;15.33;11.73;;;;;;;1.37;56.02;99509.67;1816995;79;21169;-61
2021/03/21 09:08:03;;;;;;;23.63;13.63;;;;;;;1.38;55.64;99513.14;1817106;79;20991;-63
2021/03/21 09:10:37;;;;;;;19.40;13.43;;;;;;;1.40;55.86;99499.99;1817011;79;21161;-62
2021/03/21 09:13:16;;;;;;;22.97;13.83;;;;;;;1.45;55.91;99492.78;1785980;79;21129;-64
2021/03/21 09:15:46;;;;;;;16.73;12.67;;;;;;;1.47;55.58;99485.47;1772824;80;21256;-64
2021/03/21 09:18:23;;;;;;;22.13;15.30;;;;;;;1.52;55.81;99480.40;1753698;81;21153;-63
2021/03/21 09:21:14;;;;;;;21.27;15.07;;;;;;;1.54;55.53;99490.28;1753926;81;21125;-64
2021/03/21 09:24:08;;;;;;;22.83;14.90;;;;;;;1.57;55.57;99472.17;1768104;80;21003;-64
2021/03/21 09:26:42;;;;;;;23.47;15.37;;;;;;;1.67;55.45;99467.33;1784916;80;21114;-65
2021/03/21 09:29:28;;;;;;;19.83;14.30;;;;;;;1.85;54.79;99465.95;1785627;79;21605;-62
2021/03/21 09:32:03;;;;;;;18.43;13.33;;;;;;;1.98;54.42;99455.38;1798624;79;21190;-64
2021/03/21 09:34:44;;;;;;;19.53;14.47;;;;;;;2.16;54.32;99458.27;1785842;79;21129;-63
2021/03/21 09:37:14;;;;;;;16.87;12.13;;;;;;;2.28;53.58;99441.25;1787981;80;21651;-64
2021/03/21 09:39:56;;;;;;;17.37;12.97;;;;;;;2.39;52.15;99454.75;1789449;80;21154;-64
2021/03/21 09:42:24;;;;;;;20.40;13.77;;;;;;;2.44;51.46;99456.28;1781799;79;21745;-62
2021/03/21 09:44:52;;;;;;;18.33;13.63;;;;;;;2.46;51.45;99430.85;1767214;81;21197;-63
2021/03/21 09:47:54;;;;;;;18.33;13.73;;;;;;;2.54;51.07;99428.02;1767378;81;21615;-62
2021/03/21 09:50:39;;;;;;;15.97;12.50;;;;;;;2.60;50.65;99436.47;1715050;79;21189;-65
2021/03/21 09:53:36;;;;;;;18.30;11.57;;;;;;;2.62;50.67;99432.60;1775349;80;21161;-62
2021/03/21 09:56:40;;;;;;;16.97;12.33;;;;;;;2.61;50.80;99426.16;1792517;80;22104;-63
2021/03/21 09:59:39;;;;;;;17.05;13.35;;;;;;;2.66;50.87;99410.94;1780004;80;21203;-66
2021/03/21 10:02:39;;;;;;;14.47;11.22;;;;;;;2.67;50.37;99417.38;1743467;81;21553;-63
2021/03/21 10:05:23;;;;;;;22.87;12.65;;;;;;;2.63;49.43;99424.95;1759857;81;21175;-63
2021/03/21 10:08:05;;;;;;;17.32;11.50;;;;;;;2.60;49.29;99397.47;1721979;82;21170;-64
2021/03/21 10:10:36;;;;;;;18.15;12.73;;;;;;;2.63;49.74;99392.27;1730971;82;21202;-65
2021/03/21 10:13:04;;;;;;;14.37;10.60;;;;;;;2.74;49.81;99396.12;1731009;82;21140;-63
2021/03/21 10:16:11;;;;;;;15.90;10.77;;;;;;;2.83;48.96;99396.23;1731005;81;21102;-63
2021/03/21 10:18:48;;;;;;;16.95;11.63;;;;;;;2.90;48.10;99411.12;1760459;81;21129;-64
2021/03/21 10:21:29;;;;;;;18.90;12.73;;;;;;;2.90;48.01;99389.88;1779899;80;21269;-63
2021/03/21 10:24:07;;;;;;;13.55;10.03;;;;;;;2.89;47.65;99387.41;1761398;81;22309;-64
2021/03/21 10:26:35;;;;;;;16.80;10.90;;;;;;;2.89;47.57;99417.45;1776961;80;21153;-65
2021/03/21 10:29:23;;;;;;;12.55;10.25;;;;;;;2.94;46.90;99413.66;1717360;82;21186;-63
2021/03/21 10:31:52;;;;;;;17.17;11.70;;;;;;;2.93;46.86;99373.51;1776405;80;21118;-63
2021/03/21 10:34:32;;;;;;;18.60;10.82;;;;;;;2.94;46.85;99373.00;1706862;83;21147;-64
2021/03/21 10:36:59;;;;;;;12.45;9.00;;;;;;;2.98;46.01;99388.82;1770138;80;22325;-63
2021/03/21 10:39:32;;;;;;;15.65;10.93;;;;;;;3.00;46.45;99346.43;1730923;82;21146;-62
2021/03/21 10:42:13;;;;;;;17.90;9.08;;;;;;;3.06;46.10;99375.33;1761941;80;21197;-68
2021/03/21 10:44:48;;;;;;;14.20;9.20;;;;;;;3.11;45.39;99356.11;1758493;81;21634;-66
2021/03/21 10:47:30;;;;;;;13.83;10.32;;;;;;;3.07;45.34;99371.12;1778976;80;21114;-67
2021/03/21 10:50:01;;;;;;;11.35;9.98;;;;;;;3.13;45.12;99365.99;1748072;81;22147;-68
2021/03/21 10:52:36;;;;;;;13.60;9.50;;;;;;;3.19;45.06;99355.86;1749083;80;21194;-68
2021/03/21 10:55:21;;;;;;;13.35;8.43;;;;;;;3.24;44.77;99368.00;1720149;81;21626;-69
2021/03/21 10:57:54;;;;;;;17.85;9.08;;;;;;;3.28;44.45;99387.30;1741879;81;21070;-67
2021/03/21 11:00:32;;;;;;;12.28;10.23;;;;;;;3.27;44.17;99353.78;1731495;82;21233;-69
2021/03/21 11:03:10;;;;;;;11.63;9.90;;;;;;;3.31;44.58;99331.06;1730935;82;21537;-67
2021/03/21 11:05:42;;;;;;;10.98;8.33;;;;;;;3.32;44.18;99328.72;1722856;81;21196;-69
2021/03/21 11:08:29;;;;;;;11.83;8.00;;;;;;;3.35;43.97;99374.82;1779777;80;21030;-69
2021/03/21 11:11:14;;;;;;;11.63;8.78;;;;;;;3.40;43.82;99331.15;1747627;81;21188;-70
2021/03/21 11:13:42;;;;;;;12.98;9.65;;;;;;;3.45;43.69;99315.34;1749070;82;21602;-70
2021/03/21 11:16:21;;;;;;;12.65;8.40;;;;;;;3.52;43.37;99312.66;1741511;80;21622;-72
2021/03/21 11:18:52;;;;;;;11.25;8.50;;;;;;;3.62;43.37;99307.70;1766226;79;21130;-69
2021/03/21 11:21:23;;;;;;;17.15;8.30;;;;;;;3.70;43.43;99316.73;1722586;83;21186;-67
2021/03/21 11:24:19;;;;;;;14.58;9.88;;;;;;;3.70;42.95;99342.00;1761225;81;21012;-80
2021/03/21 11:26:47;;;;;;;13.30;9.40;;;;;;;3.72;43.88;99292.09;1753777;81;21210;-67
2021/03/21 11:29:26;;;;;;;13.68;7.95;;;;;;;3.83;43.62;99291.41;1751526;81;21204;-67
2021/03/21 11:31:54;;;;;;;15.45;10.75;;;;;;;3.87;43.30;99288.61;1737264;82;21235;-67
2021/03/21 11:34:31;;;;;;;13.60;8.70;;;;;;;3.95;43.85;99267.05;1748823;82;22332;-65
2021/03/21 11:37:08;;;;;;;13.45;8.63;;;;;;;4.09;43.42;99289.55;1749087;82;21124;-66
2021/03/21 11:39:59;;;;;;;9.98;8.10;;;;;;;4.13;43.62;99272.92;1749848;82;21649;-66
2021/03/21 11:42:39;;;;;;;12.45;8.93;;;;;;;4.19;43.76;99265.41;1720553;82;21757;-69
2021/03/21 11:45:26;;;;;;;12.18;8.80;;;;;;;4.27;43.22;99273.09;1749486;81;21649;-65
2021/03/21 11:47:58;;;;;;;13.65;10.58;;;;;;;4.21;43.18;99275.84;1749680;82;21147;-65
2021/03/21 11:50:31;;;;;;;8.93;7.87;;;;;;;4.10;43.21;99271.22;1718346;82;21152;-67
2021/03/21 11:53:00;;;;;;;13.58;9.85;;;;;;;4.06;43.54;99247.41;1749752;82;21113;-66
2021/03/21 11:55:31;;;;;;;12.03;10.18;;;;;;;4.03;43.74;99245.98;1749764;82;22306;-66
2021/03/21 11:58:26;;;;;;;17.20;9.85;;;;;;;4.11;44.10;99228.95;1749657;82;21598;-66
2021/03/21 12:01:06;;;;;;;13.20;9.00;;;;;;;4.19;44.28;99240.63;1749785;82;21566;-66
2021/03/21 12:03:53;;;;;;;13.83;10.53;;;;;;;4.21;43.84;99228.75;1730723;82;21215;-65
2021/03/21 12:06:38;;;;;;;11.55;8.30;;;;;;;4.27;44.32;99213.72;1749754;82;21674;-67
2021/03/21 12:09:20;;;;;;;14.43;11.05;;;;;;;4.32;43.90;99212.03;1749938;82;21445;-66
2021/03/21 12:11:48;;;;;;;14.53;9.23;;;;;;;4.37;43.41;99235.33;1749744;81;21108;-66
2021/03/21 12:14:43;;;;;;;14.15;10.20;;;;;;;4.33;43.90;99215.52;1749718;81;20997;-66
2021/03/21 12:17:31;;;;;;;12.18;9.90;;;;;;;4.31;43.95;99230.91;1749769;82;21176;-65
2021/03/21 12:20:27;;;;;;;9.73;7.80;;;;;;;4.36;44.18;99209.77;1750224;82;21581;-67
2021/03/21 12:22:55;;;;;;;15.98;10.05;;;;;;;4.43;44.39;99207.83;1750274;82;21221;-66
2021/03/21 12:25:28;;;;;;;12.73;9.18;;;;;;;4.48;43.78;99205.31;1748995;82;21061;-65
2021/03/21 12:28:19;;;;;;;15.15;9.28;;;;;;;4.52;43.59;99226.98;1749701;82;21033;-65
2021/03/21 12:30:52;;;;;;;10.35;8.83;;;;;;;4.56;43.48;99255.59;1749656;80;21136;-64
2021/03/21 12:33:36;;;;;;;18.20;9.55;;;;;;;4.46;42.34;99221.23;1721717;82;21148;-65
2021/03/21 12:36:11;;;;;;;10.55;8.23;;;;;;;4.34;42.85;99215.30;1749838;81;21278;-65
2021/03/21 12:38:51;;;;;;;14.25;9.73;;;;;;;4.33;43.29;99215.52;1749809;82;21578;-66